sensor_id;sensor_type;location;lat;lon;timestamp;P1;durP1;ratioP1;P2;durP2;ratioP2
69890;SDS011;57170;43.964;21.262;2022-09-30T00:01:20;9.52;;;5.40;;
69890;SDS011;57170;43.964;21.262;2022-09-30T00:03:46;14.60;;;6.10;;
69890;SDS011;57170;43.964;21.262;2022-09-30T00:06:13;14.52;;;5.38;;
69890;SDS011;57170;43.964;21.262;2022-09-30T00:08:40;7.35;;;4.70;;
69890;SDS011;57170;43.964;21.262;2022-09-30T00:11:16;7.30;;;5.70;;
69890;SDS011;57170;43.964;21.262;2022-09-30T00:13:44;9.13;;;5.32;;
69890;SDS011;57170;43.964;21.262;2022-09-30T00:16:10;9.27;;;5.60;;
69890;SDS011;57170;43.964;21.262;2022-09-30T00:18:37;12.43;;;6.43;;
69890;SDS011;57170;43.964;21.262;2022-09-30T00:21:04;12.25;;;6.70;;
69890;SDS011;57170;43.964;21.262;2022-09-30T00:23:30;19.10;;;8.18;;
69890;SDS011;57170;43.964;21.262;2022-09-30T00:26:01;13.73;;;7.07;;
69890;SDS011;57170;43.964;21.262;2022-09-30T00:28:28;10.77;;;6.97;;
69890;SDS011;57170;43.964;21.262;2022-09-30T00:31:01;8.70;;;7.20;;
69890;SDS011;57170;43.964;21.262;2022-09-30T00:33:29;11.30;;;6.88;;
69890;SDS011;57170;43.964;21.262;2022-09-30T00:35:55;13.68;;;7.80;;
69890;SDS011;57170;43.964;21.262;2022-09-30T00:38:21;14.02;;;6.88;;
69890;SDS011;57170;43.964;21.262;2022-09-30T00:40:48;8.75;;;6.97;;
69890;SDS011;57170;43.964;21.262;2022-09-30T00:43:19;13.85;;;8.15;;
69890;SDS011;57170;43.964;21.262;2022-09-30T00:45:50;10.10;;;7.38;;
69890;SDS011;57170;43.964;21.262;2022-09-30T00:48:20;17.40;;;7.85;;
69890;SDS011;57170;43.964;21.262;2022-09-30T00:50:49;11.15;;;7.60;;
69890;SDS011;57170;43.964;21.262;2022-09-30T00:58:17;12.50;;;7.50;;
69890;SDS011;57170;43.964;21.262;2022-09-30T01:00:44;9.95;;;6.15;;
69890;SDS011;57170;43.964;21.262;2022-09-30T01:03:10;9.60;;;6.47;;
69890;SDS011;57170;43.964;21.262;2022-09-30T01:05:37;12.63;;;6.93;;
69890;SDS011;57170;43.964;21.262;2022-09-30T01:08:03;13.18;;;6.75;;
69890;SDS011;57170;43.964;21.262;2022-09-30T01:10:30;10.27;;;6.47;;
69890;SDS011;57170;43.964;21.262;2022-09-30T01:12:56;11.60;;;6.85;;
69890;SDS011;57170;43.964;21.262;2022-09-30T01:15:25;8.10;;;6.35;;
69890;SDS011;57170;43.964;21.262;2022-09-30T01:25:58;11.45;;;6.38;;
69890;SDS011;57170;43.964;21.262;2022-09-30T01:51:21;13.98;;;6.88;;
69890;SDS011;57170;43.964;21.262;2022-09-30T01:54:00;10.23;;;6.88;;
69890;SDS011;57170;43.964;21.262;2022-09-30T01:56:37;10.57;;;6.15;;
69890;SDS011;57170;43.964;21.262;2022-09-30T01:59:05;9.23;;;6.47;;
69890;SDS011;57170;43.964;21.262;2022-09-30T02:01:35;13.32;;;6.82;;
69890;SDS011;57170;43.964;21.262;2022-09-30T02:04:06;12.45;;;6.50;;
69890;SDS011;57170;43.964;21.262;2022-09-30T02:06:35;13.13;;;6.72;;
69890;SDS011;57170;43.964;21.262;2022-09-30T02:11:29;10.88;;;5.93;;
69890;SDS011;57170;43.964;21.262;2022-09-30T02:16:37;12.15;;;7.18;;
69890;SDS011;57170;43.964;21.262;2022-09-30T02:19:17;17.70;;;6.30;;
69890;SDS011;57170;43.964;21.262;2022-09-30T02:21:47;12.52;;;6.30;;
69890;SDS011;57170;43.964;21.262;2022-09-30T02:24:16;13.43;;;8.60;;
69890;SDS011;57170;43.964;21.262;2022-09-30T02:26:45;11.48;;;7.00;;
69890;SDS011;57170;43.964;21.262;2022-09-30T02:29:15;11.73;;;7.05;;
69890;SDS011;57170;43.964;21.262;2022-09-30T02:31:42;9.02;;;6.70;;
69890;SDS011;57170;43.964;21.262;2022-09-30T02:34:13;13.82;;;7.05;;
69890;SDS011;57170;43.964;21.262;2022-09-30T02:36:45;14.07;;;7.38;;
69890;SDS011;57170;43.964;21.262;2022-09-30T02:39:36;11.63;;;6.35;;
69890;SDS011;57170;43.964;21.262;2022-09-30T02:42:04;10.88;;;6.60;;
69890;SDS011;57170;43.964;21.262;2022-09-30T02:44:33;19.90;;;8.13;;
69890;SDS011;57170;43.964;21.262;2022-09-30T02:49:45;10.38;;;7.13;;
69890;SDS011;57170;43.964;21.262;2022-09-30T02:57:16;9.45;;;6.38;;
69890;SDS011;57170;43.964;21.262;2022-09-30T02:59:48;12.02;;;7.07;;
69890;SDS011;57170;43.964;21.262;2022-09-30T03:02:16;10.32;;;6.47;;
69890;SDS011;57170;43.964;21.262;2022-09-30T03:04:43;11.52;;;7.30;;
69890;SDS011;57170;43.964;21.262;2022-09-30T03:07:10;8.55;;;6.78;;
69890;SDS011;57170;43.964;21.262;2022-09-30T03:09:36;11.63;;;6.15;;
69890;SDS011;57170;43.964;21.262;2022-09-30T03:12:50;11.43;;;5.90;;
69890;SDS011;57170;43.964;21.262;2022-09-30T03:17:25;9.80;;;6.18;;
69890;SDS011;57170;43.964;21.262;2022-09-30T03:22:36;19.30;;;7.68;;
69890;SDS011;57170;43.964;21.262;2022-09-30T03:30:19;14.30;;;7.03;;
69890;SDS011;57170;43.964;21.262;2022-09-30T03:38:22;11.88;;;6.53;;
69890;SDS011;57170;43.964;21.262;2022-09-30T03:46:11;12.70;;;7.97;;
69890;SDS011;57170;43.964;21.262;2022-09-30T03:48:40;15.20;;;7.13;;
69890;SDS011;57170;43.964;21.262;2022-09-30T03:51:07;11.77;;;6.97;;
69890;SDS011;57170;43.964;21.262;2022-09-30T03:53:41;11.90;;;6.50;;
69890;SDS011;57170;43.964;21.262;2022-09-30T03:56:08;7.70;;;6.25;;
69890;SDS011;57170;43.964;21.262;2022-09-30T03:58:34;10.63;;;6.28;;
69890;SDS011;57170;43.964;21.262;2022-09-30T04:01:01;9.82;;;6.88;;
69890;SDS011;57170;43.964;21.262;2022-09-30T04:03:28;11.68;;;6.40;;
69890;SDS011;57170;43.964;21.262;2022-09-30T04:05:54;11.13;;;5.60;;
69890;SDS011;57170;43.964;21.262;2022-09-30T04:08:20;12.18;;;6.45;;
69890;SDS011;57170;43.964;21.262;2022-09-30T04:10:47;10.48;;;5.70;;
69890;SDS011;57170;43.964;21.262;2022-09-30T04:13:13;13.80;;;5.65;;
69890;SDS011;57170;43.964;21.262;2022-09-30T04:15:39;9.90;;;6.85;;
69890;SDS011;57170;43.964;21.262;2022-09-30T04:18:05;11.43;;;5.78;;
69890;SDS011;57170;43.964;21.262;2022-09-30T04:20:32;12.43;;;6.10;;
69890;SDS011;57170;43.964;21.262;2022-09-30T04:22:58;12.40;;;7.75;;
69890;SDS011;57170;43.964;21.262;2022-09-30T04:25:26;14.70;;;7.57;;
69890;SDS011;57170;43.964;21.262;2022-09-30T04:27:52;14.45;;;9.23;;
69890;SDS011;57170;43.964;21.262;2022-09-30T04:30:19;14.00;;;9.55;;
69890;SDS011;57170;43.964;21.262;2022-09-30T04:32:45;12.13;;;6.95;;
69890;SDS011;57170;43.964;21.262;2022-09-30T04:35:11;13.00;;;7.80;;
69890;SDS011;57170;43.964;21.262;2022-09-30T04:37:41;12.57;;;7.80;;
69890;SDS011;57170;43.964;21.262;2022-09-30T04:40:08;14.65;;;6.68;;
69890;SDS011;57170;43.964;21.262;2022-09-30T04:42:34;11.35;;;6.10;;
69890;SDS011;57170;43.964;21.262;2022-09-30T04:45:00;13.00;;;7.40;;
69890;SDS011;57170;43.964;21.262;2022-09-30T04:47:27;15.98;;;7.18;;
69890;SDS011;57170;43.964;21.262;2022-09-30T04:49:54;13.68;;;7.45;;
69890;SDS011;57170;43.964;21.262;2022-09-30T04:52:21;9.68;;;5.88;;
69890;SDS011;57170;43.964;21.262;2022-09-30T04:54:47;12.70;;;7.00;;
69890;SDS011;57170;43.964;21.262;2022-09-30T04:57:13;14.80;;;6.60;;
69890;SDS011;57170;43.964;21.262;2022-09-30T04:59:39;12.82;;;6.75;;
69890;SDS011;57170;43.964;21.262;2022-09-30T05:02:06;11.38;;;7.05;;
69890;SDS011;57170;43.964;21.262;2022-09-30T05:04:35;16.23;;;7.13;;
69890;SDS011;57170;43.964;21.262;2022-09-30T05:07:01;17.00;;;7.15;;
69890;SDS011;57170;43.964;21.262;2022-09-30T05:09:30;9.23;;;5.78;;
69890;SDS011;57170;43.964;21.262;2022-09-30T05:11:56;8.43;;;5.82;;
69890;SDS011;57170;43.964;21.262;2022-09-30T05:14:22;9.73;;;6.25;;
69890;SDS011;57170;43.964;21.262;2022-09-30T05:16:48;7.15;;;5.80;;
69890;SDS011;57170;43.964;21.262;2022-09-30T05:19:14;7.63;;;5.78;;
69890;SDS011;57170;43.964;21.262;2022-09-30T05:21:41;9.60;;;5.50;;
69890;SDS011;57170;43.964;21.262;2022-09-30T05:24:08;8.02;;;6.22;;
69890;SDS011;57170;43.964;21.262;2022-09-30T05:26:35;9.70;;;5.15;;
69890;SDS011;57170;43.964;21.262;2022-09-30T05:29:01;5.38;;;4.53;;
69890;SDS011;57170;43.964;21.262;2022-09-30T05:31:27;8.73;;;4.63;;
69890;SDS011;57170;43.964;21.262;2022-09-30T05:33:53;6.00;;;5.35;;
69890;SDS011;57170;43.964;21.262;2022-09-30T05:36:19;8.63;;;5.60;;
69890;SDS011;57170;43.964;21.262;2022-09-30T05:38:48;6.40;;;5.00;;
69890;SDS011;57170;43.964;21.262;2022-09-30T05:41:15;8.50;;;5.80;;
69890;SDS011;57170;43.964;21.262;2022-09-30T05:43:42;9.45;;;6.57;;
69890;SDS011;57170;43.964;21.262;2022-09-30T05:46:09;8.65;;;5.57;;
69890;SDS011;57170;43.964;21.262;2022-09-30T05:48:35;6.55;;;4.90;;
69890;SDS011;57170;43.964;21.262;2022-09-30T05:51:01;15.05;;;5.53;;
69890;SDS011;57170;43.964;21.262;2022-09-30T05:53:28;10.63;;;6.05;;
69890;SDS011;57170;43.964;21.262;2022-09-30T05:55:56;7.13;;;4.78;;
69890;SDS011;57170;43.964;21.262;2022-09-30T05:58:22;8.00;;;4.95;;
69890;SDS011;57170;43.964;21.262;2022-09-30T06:00:48;9.43;;;5.95;;
69890;SDS011;57170;43.964;21.262;2022-09-30T06:03:15;9.70;;;5.93;;
69890;SDS011;57170;43.964;21.262;2022-09-30T06:05:41;9.82;;;6.93;;
69890;SDS011;57170;43.964;21.262;2022-09-30T06:08:09;8.82;;;6.10;;
69890;SDS011;57170;43.964;21.262;2022-09-30T06:10:35;9.02;;;6.70;;
69890;SDS011;57170;43.964;21.262;2022-09-30T06:13:02;8.63;;;5.65;;
69890;SDS011;57170;43.964;21.262;2022-09-30T06:15:28;6.75;;;4.68;;
69890;SDS011;57170;43.964;21.262;2022-09-30T06:17:55;8.55;;;6.43;;
69890;SDS011;57170;43.964;21.262;2022-09-30T06:20:21;8.23;;;5.75;;
69890;SDS011;57170;43.964;21.262;2022-09-30T06:22:47;9.77;;;5.95;;
69890;SDS011;57170;43.964;21.262;2022-09-30T06:25:13;9.35;;;6.32;;
69890;SDS011;57170;43.964;21.262;2022-09-30T06:27:42;11.57;;;6.82;;
69890;SDS011;57170;43.964;21.262;2022-09-30T06:30:09;8.77;;;5.50;;
69890;SDS011;57170;43.964;21.262;2022-09-30T06:32:35;11.57;;;6.45;;
69890;SDS011;57170;43.964;21.262;2022-09-30T06:35:01;10.88;;;6.35;;
69890;SDS011;57170;43.964;21.262;2022-09-30T06:37:28;9.88;;;6.47;;
69890;SDS011;57170;43.964;21.262;2022-09-30T06:39:54;10.57;;;7.38;;
69890;SDS011;57170;43.964;21.262;2022-09-30T06:42:20;13.73;;;6.88;;
69890;SDS011;57170;43.964;21.262;2022-09-30T06:44:49;9.38;;;5.72;;
69890;SDS011;57170;43.964;21.262;2022-09-30T06:47:15;9.30;;;5.65;;
69890;SDS011;57170;43.964;21.262;2022-09-30T06:49:43;8.82;;;5.72;;
69890;SDS011;57170;43.964;21.262;2022-09-30T06:52:09;10.30;;;6.82;;
69890;SDS011;57170;43.964;21.262;2022-09-30T06:54:38;13.25;;;6.60;;
69890;SDS011;57170;43.964;21.262;2022-09-30T06:57:08;10.13;;;6.90;;
69890;SDS011;57170;43.964;21.262;2022-09-30T06:59:34;11.48;;;7.05;;
69890;SDS011;57170;43.964;21.262;2022-09-30T07:02:00;15.70;;;7.60;;
69890;SDS011;57170;43.964;21.262;2022-09-30T07:04:27;9.93;;;7.13;;
69890;SDS011;57170;43.964;21.262;2022-09-30T07:06:54;9.02;;;6.32;;
69890;SDS011;57170;43.964;21.262;2022-09-30T07:09:20;39.20;;;23.13;;
69890;SDS011;57170;43.964;21.262;2022-09-30T07:11:46;38.35;;;26.65;;
69890;SDS011;57170;43.964;21.262;2022-09-30T07:14:13;22.60;;;16.38;;
69890;SDS011;57170;43.964;21.262;2022-09-30T07:16:39;21.65;;;15.00;;
69890;SDS011;57170;43.964;21.262;2022-09-30T07:19:06;34.83;;;22.67;;
69890;SDS011;57170;43.964;21.262;2022-09-30T07:21:34;18.27;;;12.00;;
69890;SDS011;57170;43.964;21.262;2022-09-30T07:24:00;23.70;;;16.13;;
69890;SDS011;57170;43.964;21.262;2022-09-30T07:26:26;31.70;;;21.60;;
69890;SDS011;57170;43.964;21.262;2022-09-30T07:28:53;19.27;;;15.02;;
69890;SDS011;57170;43.964;21.262;2022-09-30T07:31:20;11.25;;;7.22;;
69890;SDS011;57170;43.964;21.262;2022-09-30T07:33:47;11.57;;;6.70;;
69890;SDS011;57170;43.964;21.262;2022-09-30T07:36:16;9.60;;;5.43;;
69890;SDS011;57170;43.964;21.262;2022-09-30T07:38:44;6.30;;;4.68;;
69890;SDS011;57170;43.964;21.262;2022-09-30T07:41:14;5.43;;;3.83;;
69890;SDS011;57170;43.964;21.262;2022-09-30T07:43:44;8.20;;;4.53;;
69890;SDS011;57170;43.964;21.262;2022-09-30T07:46:12;6.90;;;4.00;;
69890;SDS011;57170;43.964;21.262;2022-09-30T07:48:39;8.80;;;4.40;;
69890;SDS011;57170;43.964;21.262;2022-09-30T07:51:10;8.93;;;4.47;;
69890;SDS011;57170;43.964;21.262;2022-09-30T07:53:38;6.20;;;4.90;;
69890;SDS011;57170;43.964;21.262;2022-09-30T07:56:04;9.65;;;5.45;;
69890;SDS011;57170;43.964;21.262;2022-09-30T07:58:31;4.53;;;4.10;;
69890;SDS011;57170;43.964;21.262;2022-09-30T08:00:57;5.47;;;4.57;;
69890;SDS011;57170;43.964;21.262;2022-09-30T08:03:23;6.18;;;5.30;;
69890;SDS011;57170;43.964;21.262;2022-09-30T08:05:49;6.65;;;5.93;;
69890;SDS011;57170;43.964;21.262;2022-09-30T08:08:16;6.22;;;3.67;;
69890;SDS011;57170;43.964;21.262;2022-09-30T08:10:42;10.05;;;5.38;;
69890;SDS011;57170;43.964;21.262;2022-09-30T08:13:08;5.82;;;5.15;;
69890;SDS011;57170;43.964;21.262;2022-09-30T08:15:34;5.38;;;4.88;;
69890;SDS011;57170;43.964;21.262;2022-09-30T08:18:00;7.70;;;4.80;;
69890;SDS011;57170;43.964;21.262;2022-09-30T08:20:27;5.68;;;4.93;;
69890;SDS011;57170;43.964;21.262;2022-09-30T08:22:53;6.13;;;4.93;;
69890;SDS011;57170;43.964;21.262;2022-09-30T08:25:20;7.53;;;4.60;;
69890;SDS011;57170;43.964;21.262;2022-09-30T08:27:46;6.47;;;5.10;;
69890;SDS011;57170;43.964;21.262;2022-09-30T08:30:13;6.80;;;5.35;;
69890;SDS011;57170;43.964;21.262;2022-09-30T08:32:39;3.83;;;3.25;;
69890;SDS011;57170;43.964;21.262;2022-09-30T08:35:05;5.93;;;3.60;;
69890;SDS011;57170;43.964;21.262;2022-09-30T08:37:31;5.45;;;2.80;;
69890;SDS011;57170;43.964;21.262;2022-09-30T08:39:57;5.43;;;2.90;;
69890;SDS011;57170;43.964;21.262;2022-09-30T08:45:14;5.85;;;4.00;;
69890;SDS011;57170;43.964;21.262;2022-09-30T08:50:27;4.97;;;4.38;;
69890;SDS011;57170;43.964;21.262;2022-09-30T08:53:38;5.15;;;4.35;;
69890;SDS011;57170;43.964;21.262;2022-09-30T08:55:44;5.32;;;3.10;;
69890;SDS011;57170;43.964;21.262;2022-09-30T08:58:33;5.78;;;3.38;;
69890;SDS011;57170;43.964;21.262;2022-09-30T09:03:35;6.20;;;4.70;;
69890;SDS011;57170;43.964;21.262;2022-09-30T09:08:44;7.63;;;5.20;;
69890;SDS011;57170;43.964;21.262;2022-09-30T09:11:16;9.10;;;4.10;;
69890;SDS011;57170;43.964;21.262;2022-09-30T09:23:38;7.50;;;4.93;;
69890;SDS011;57170;43.964;21.262;2022-09-30T09:26:04;4.57;;;3.10;;
69890;SDS011;57170;43.964;21.262;2022-09-30T09:30:57;4.60;;;3.63;;
69890;SDS011;57170;43.964;21.262;2022-09-30T09:33:27;5.30;;;3.75;;
69890;SDS011;57170;43.964;21.262;2022-09-30T09:36:14;5.05;;;3.90;;
69890;SDS011;57170;43.964;21.262;2022-09-30T09:46:25;6.22;;;4.80;;
69890;SDS011;57170;43.964;21.262;2022-09-30T09:51:42;7.68;;;4.30;;
69890;SDS011;57170;43.964;21.262;2022-09-30T09:54:11;5.90;;;4.88;;
69890;SDS011;57170;43.964;21.262;2022-09-30T09:56:38;6.80;;;4.30;;
69890;SDS011;57170;43.964;21.262;2022-09-30T09:59:13;4.82;;;4.22;;
69890;SDS011;57170;43.964;21.262;2022-09-30T10:01:44;5.57;;;4.32;;
69890;SDS011;57170;43.964;21.262;2022-09-30T10:04:12;5.88;;;4.55;;
69890;SDS011;57170;43.964;21.262;2022-09-30T10:09:20;5.15;;;4.30;;
69890;SDS011;57170;43.964;21.262;2022-09-30T10:11:46;7.03;;;4.53;;
69890;SDS011;57170;43.964;21.262;2022-09-30T10:14:19;5.53;;;3.75;;
69890;SDS011;57170;43.964;21.262;2022-09-30T10:16:46;4.88;;;3.78;;
69890;SDS011;57170;43.964;21.262;2022-09-30T10:19:23;7.32;;;4.10;;
69890;SDS011;57170;43.964;21.262;2022-09-30T10:21:57;6.40;;;4.68;;
69890;SDS011;57170;43.964;21.262;2022-09-30T10:24:38;8.02;;;5.47;;
69890;SDS011;57170;43.964;21.262;2022-09-30T10:29:49;8.98;;;4.38;;
69890;SDS011;57170;43.964;21.262;2022-09-30T10:32:15;8.02;;;4.47;;
69890;SDS011;57170;43.964;21.262;2022-09-30T10:34:42;6.13;;;4.60;;
69890;SDS011;57170;43.964;21.262;2022-09-30T10:37:10;7.10;;;4.13;;
69890;SDS011;57170;43.964;21.262;2022-09-30T10:39:38;7.55;;;4.20;;
69890;SDS011;57170;43.964;21.262;2022-09-30T10:44:42;7.10;;;4.38;;
69890;SDS011;57170;43.964;21.262;2022-09-30T10:47:12;5.60;;;4.50;;
69890;SDS011;57170;43.964;21.262;2022-09-30T10:49:42;7.47;;;4.85;;
69890;SDS011;57170;43.964;21.262;2022-09-30T10:52:45;4.80;;;4.10;;
69890;SDS011;57170;43.964;21.262;2022-09-30T10:55:06;7.38;;;3.83;;
69890;SDS011;57170;43.964;21.262;2022-09-30T10:57:36;6.68;;;3.70;;
69890;SDS011;57170;43.964;21.262;2022-09-30T11:02:45;7.53;;;4.53;;
69890;SDS011;57170;43.964;21.262;2022-09-30T11:05:22;13.88;;;4.70;;
69890;SDS011;57170;43.964;21.262;2022-09-30T11:07:52;5.43;;;4.60;;
69890;SDS011;57170;43.964;21.262;2022-09-30T11:15:41;6.47;;;4.95;;
69890;SDS011;57170;43.964;21.262;2022-09-30T11:20:42;7.55;;;5.60;;
69890;SDS011;57170;43.964;21.262;2022-09-30T11:31:18;6.05;;;4.40;;
69890;SDS011;57170;43.964;21.262;2022-09-30T11:39:09;8.00;;;4.13;;
69890;SDS011;57170;43.964;21.262;2022-09-30T11:41:43;6.82;;;4.22;;
69890;SDS011;57170;43.964;21.262;2022-09-30T11:47:00;6.45;;;4.50;;
69890;SDS011;57170;43.964;21.262;2022-09-30T11:52:06;6.40;;;4.20;;
69890;SDS011;57170;43.964;21.262;2022-09-30T11:57:17;6.97;;;4.35;;
69890;SDS011;57170;43.964;21.262;2022-09-30T12:02:17;6.90;;;4.72;;
69890;SDS011;57170;43.964;21.262;2022-09-30T12:04:47;6.68;;;4.45;;
69890;SDS011;57170;43.964;21.262;2022-09-30T12:07:20;7.68;;;4.82;;
69890;SDS011;57170;43.964;21.262;2022-09-30T12:09:52;5.97;;;4.38;;
69890;SDS011;57170;43.964;21.262;2022-09-30T12:12:18;7.07;;;5.45;;
69890;SDS011;57170;43.964;21.262;2022-09-30T12:14:46;9.75;;;5.20;;
69890;SDS011;57170;43.964;21.262;2022-09-30T12:19:44;14.05;;;5.38;;
69890;SDS011;57170;43.964;21.262;2022-09-30T12:24:39;7.78;;;4.82;;
69890;SDS011;57170;43.964;21.262;2022-09-30T12:27:17;8.73;;;5.70;;
69890;SDS011;57170;43.964;21.262;2022-09-30T12:29:51;7.72;;;5.53;;
69890;SDS011;57170;43.964;21.262;2022-09-30T12:32:45;8.90;;;6.60;;
69890;SDS011;57170;43.964;21.262;2022-09-30T12:48:20;7.07;;;5.47;;
69890;SDS011;57170;43.964;21.262;2022-09-30T12:50:48;8.23;;;4.72;;
69890;SDS011;57170;43.964;21.262;2022-09-30T12:53:35;7.90;;;4.88;;
69890;SDS011;57170;43.964;21.262;2022-09-30T12:56:10;8.45;;;5.18;;
69890;SDS011;57170;43.964;21.262;2022-09-30T12:58:40;8.13;;;4.60;;
69890;SDS011;57170;43.964;21.262;2022-09-30T13:01:13;8.98;;;4.15;;
69890;SDS011;57170;43.964;21.262;2022-09-30T13:11:39;9.77;;;5.15;;
69890;SDS011;57170;43.964;21.262;2022-09-30T13:19:39;6.82;;;4.55;;
69890;SDS011;57170;43.964;21.262;2022-09-30T13:27:39;10.73;;;4.55;;
69890;SDS011;57170;43.964;21.262;2022-09-30T13:35:55;6.05;;;4.13;;
69890;SDS011;57170;43.964;21.262;2022-09-30T13:40:44;5.80;;;3.17;;
69890;SDS011;57170;43.964;21.262;2022-09-30T13:45:38;5.38;;;3.80;;
69890;SDS011;57170;43.964;21.262;2022-09-30T13:48:08;10.10;;;4.05;;
69890;SDS011;57170;43.964;21.262;2022-09-30T13:50:40;8.18;;;3.60;;
69890;SDS011;57170;43.964;21.262;2022-09-30T13:53:29;6.63;;;3.30;;
69890;SDS011;57170;43.964;21.262;2022-09-30T13:55:58;7.43;;;3.30;;
69890;SDS011;57170;43.964;21.262;2022-09-30T14:06:16;6.87;;;2.70;;
69890;SDS011;57170;43.964;21.262;2022-09-30T14:08:52;4.40;;;2.15;;
69890;SDS011;57170;43.964;21.262;2022-09-30T14:11:31;6.35;;;2.78;;
69890;SDS011;57170;43.964;21.262;2022-09-30T14:21:36;5.53;;;3.00;;
69890;SDS011;57170;43.964;21.262;2022-09-30T14:27:27;5.97;;;3.20;;
69890;SDS011;57170;43.964;21.262;2022-09-30T14:32:28;4.70;;;2.75;;
69890;SDS011;57170;43.964;21.262;2022-09-30T14:34:56;9.07;;;2.92;;
69890;SDS011;57170;43.964;21.262;2022-09-30T14:37:36;6.28;;;3.00;;
69890;SDS011;57170;43.964;21.262;2022-09-30T14:40:03;9.07;;;3.58;;
69890;SDS011;57170;43.964;21.262;2022-09-30T14:42:35;6.05;;;3.42;;
69890;SDS011;57170;43.964;21.262;2022-09-30T14:45:02;8.80;;;3.13;;
69890;SDS011;57170;43.964;21.262;2022-09-30T14:47:37;5.60;;;3.83;;
69890;SDS011;57170;43.964;21.262;2022-09-30T14:50:10;6.45;;;3.13;;
69890;SDS011;57170;43.964;21.262;2022-09-30T14:52:44;6.15;;;3.47;;
69890;SDS011;57170;43.964;21.262;2022-09-30T15:01:06;9.40;;;3.13;;
69890;SDS011;57170;43.964;21.262;2022-09-30T15:03:34;10.55;;;5.07;;
69890;SDS011;57170;43.964;21.262;2022-09-30T15:06:01;10.73;;;4.40;;
69890;SDS011;57170;43.964;21.262;2022-09-30T15:08:27;6.30;;;3.60;;
69890;SDS011;57170;43.964;21.262;2022-09-30T15:10:54;6.70;;;4.28;;
69890;SDS011;57170;43.964;21.262;2022-09-30T15:13:21;9.65;;;3.05;;
69890;SDS011;57170;43.964;21.262;2022-09-30T15:15:48;9.68;;;3.42;;
69890;SDS011;57170;43.964;21.262;2022-09-30T15:20:53;5.90;;;3.65;;
69890;SDS011;57170;43.964;21.262;2022-09-30T15:23:22;5.75;;;3.28;;
69890;SDS011;57170;43.964;21.262;2022-09-30T15:25:49;5.35;;;3.00;;
69890;SDS011;57170;43.964;21.262;2022-09-30T15:28:16;5.40;;;4.25;;
69890;SDS011;57170;43.964;21.262;2022-09-30T15:30:42;10.60;;;3.78;;
69890;SDS011;57170;43.964;21.262;2022-09-30T15:33:18;8.48;;;4.43;;
69890;SDS011;57170;43.964;21.262;2022-09-30T15:35:46;7.30;;;3.75;;
69890;SDS011;57170;43.964;21.262;2022-09-30T15:38:17;5.00;;;3.00;;
69890;SDS011;57170;43.964;21.262;2022-09-30T15:40:45;7.97;;;3.42;;
69890;SDS011;57170;43.964;21.262;2022-09-30T15:43:13;6.97;;;4.28;;
69890;SDS011;57170;43.964;21.262;2022-09-30T15:45:44;11.10;;;4.82;;
69890;SDS011;57170;43.964;21.262;2022-09-30T15:50:45;6.95;;;3.95;;
69890;SDS011;57170;43.964;21.262;2022-09-30T15:53:21;9.38;;;5.05;;
69890;SDS011;57170;43.964;21.262;2022-09-30T15:55:48;6.47;;;4.38;;
69890;SDS011;57170;43.964;21.262;2022-09-30T15:58:34;7.70;;;4.53;;
69890;SDS011;57170;43.964;21.262;2022-09-30T16:01:35;8.35;;;4.85;;
69890;SDS011;57170;43.964;21.262;2022-09-30T16:03:55;8.95;;;5.25;;
69890;SDS011;57170;43.964;21.262;2022-09-30T16:06:26;10.00;;;5.38;;
69890;SDS011;57170;43.964;21.262;2022-09-30T16:08:53;11.13;;;4.90;;
69890;SDS011;57170;43.964;21.262;2022-09-30T16:11:27;9.05;;;4.65;;
69890;SDS011;57170;43.964;21.262;2022-09-30T16:13:53;9.32;;;3.33;;
69890;SDS011;57170;43.964;21.262;2022-09-30T16:16:25;8.45;;;4.32;;
69890;SDS011;57170;43.964;21.262;2022-09-30T16:18:53;5.18;;;3.42;;
69890;SDS011;57170;43.964;21.262;2022-09-30T16:26:46;6.00;;;3.33;;
69890;SDS011;57170;43.964;21.262;2022-09-30T16:29:13;7.35;;;5.05;;
69890;SDS011;57170;43.964;21.262;2022-09-30T16:31:41;10.00;;;5.47;;
69890;SDS011;57170;43.964;21.262;2022-09-30T16:34:10;6.95;;;4.63;;
69890;SDS011;57170;43.964;21.262;2022-09-30T16:36:37;10.15;;;5.93;;
69890;SDS011;57170;43.964;21.262;2022-09-30T16:39:03;16.70;;;6.18;;
69890;SDS011;57170;43.964;21.262;2022-09-30T16:41:29;10.15;;;5.97;;
69890;SDS011;57170;43.964;21.262;2022-09-30T16:43:56;7.82;;;4.50;;
69890;SDS011;57170;43.964;21.262;2022-09-30T16:46:22;7.20;;;4.50;;
69890;SDS011;57170;43.964;21.262;2022-09-30T16:48:48;6.65;;;4.00;;
69890;SDS011;57170;43.964;21.262;2022-09-30T16:51:14;12.32;;;4.57;;
69890;SDS011;57170;43.964;21.262;2022-09-30T16:53:41;7.28;;;3.25;;
69890;SDS011;57170;43.964;21.262;2022-09-30T16:56:14;7.93;;;4.13;;
69890;SDS011;57170;43.964;21.262;2022-09-30T16:58:41;13.15;;;8.23;;
69890;SDS011;57170;43.964;21.262;2022-09-30T17:01:17;11.25;;;7.78;;
69890;SDS011;57170;43.964;21.262;2022-09-30T17:06:24;6.47;;;4.28;;
69890;SDS011;57170;43.964;21.262;2022-09-30T17:08:51;10.65;;;7.18;;
69890;SDS011;57170;43.964;21.262;2022-09-30T17:11:24;11.50;;;7.30;;
69890;SDS011;57170;43.964;21.262;2022-09-30T17:13:51;11.95;;;7.28;;
69890;SDS011;57170;43.964;21.262;2022-09-30T17:16:17;11.15;;;5.88;;
69890;SDS011;57170;43.964;21.262;2022-09-30T17:18:43;9.73;;;4.90;;
69890;SDS011;57170;43.964;21.262;2022-09-30T17:21:09;16.77;;;7.75;;
69890;SDS011;57170;43.964;21.262;2022-09-30T17:23:35;9.55;;;6.35;;
69890;SDS011;57170;43.964;21.262;2022-09-30T17:26:04;16.52;;;10.52;;
69890;SDS011;57170;43.964;21.262;2022-09-30T17:28:30;13.82;;;9.07;;
69890;SDS011;57170;43.964;21.262;2022-09-30T17:30:58;10.32;;;8.13;;
69890;SDS011;57170;43.964;21.262;2022-09-30T17:33:28;14.77;;;7.85;;
69890;SDS011;57170;43.964;21.262;2022-09-30T17:35:58;11.55;;;7.82;;
69890;SDS011;57170;43.964;21.262;2022-09-30T17:38:24;10.98;;;6.68;;
69890;SDS011;57170;43.964;21.262;2022-09-30T17:40:51;17.30;;;7.25;;
69890;SDS011;57170;43.964;21.262;2022-09-30T17:43:35;9.77;;;7.57;;
69890;SDS011;57170;43.964;21.262;2022-09-30T17:46:01;13.88;;;7.85;;
69890;SDS011;57170;43.964;21.262;2022-09-30T17:48:28;11.38;;;8.43;;
69890;SDS011;57170;43.964;21.262;2022-09-30T17:50:54;14.50;;;8.60;;
69890;SDS011;57170;43.964;21.262;2022-09-30T17:53:20;13.18;;;9.10;;
69890;SDS011;57170;43.964;21.262;2022-09-30T17:55:47;17.40;;;10.88;;
69890;SDS011;57170;43.964;21.262;2022-09-30T17:58:14;10.43;;;8.27;;
69890;SDS011;57170;43.964;21.262;2022-09-30T18:00:41;16.45;;;10.40;;
69890;SDS011;57170;43.964;21.262;2022-09-30T18:03:07;14.77;;;8.82;;
69890;SDS011;57170;43.964;21.262;2022-09-30T18:05:34;13.68;;;9.77;;
69890;SDS011;57170;43.964;21.262;2022-09-30T18:08:00;11.48;;;8.95;;
69890;SDS011;57170;43.964;21.262;2022-09-30T18:10:27;14.88;;;9.45;;
69890;SDS011;57170;43.964;21.262;2022-09-30T18:12:53;11.35;;;8.10;;
69890;SDS011;57170;43.964;21.262;2022-09-30T18:15:22;12.95;;;7.63;;
69890;SDS011;57170;43.964;21.262;2022-09-30T18:17:50;17.40;;;7.88;;
69890;SDS011;57170;43.964;21.262;2022-09-30T18:20:16;15.82;;;11.05;;
69890;SDS011;57170;43.964;21.262;2022-09-30T18:22:42;15.70;;;10.77;;
69890;SDS011;57170;43.964;21.262;2022-09-30T18:25:08;16.02;;;9.63;;
69890;SDS011;57170;43.964;21.262;2022-09-30T18:27:43;16.00;;;10.48;;
69890;SDS011;57170;43.964;21.262;2022-09-30T18:30:10;13.23;;;9.05;;
69890;SDS011;57170;43.964;21.262;2022-09-30T18:32:37;15.10;;;10.98;;